Giorgos Dracopoulos — 9HA3377 — position and weather

sailwx.info

Track history (hours):
 
Tides and Currents Weather Stations Pressure Air Temp Water Temp Dewpoint Dewpoint Depression Visibility Wind Speed Wind Dir Waves Ship Positions

Giorgos Dracopoulos

Last reported at 2017-Sep-15 06:58 UTC. Time now 2017-Sep-21 16:18 UTC.
Position N 33°42' W 007°36'.

Length 199 m; draft 6.9 m.

Type: Cargo ship. MMSI: 229523000.

Date/timePositionNaut miles runAvg speedWind from/ knotsBaromVisibWave heightAir tempDewpointWater temp
2017-Sep-15 06:58N 33°42' W 007°36'0 0.0
2017-Sep-15 04:55N 33°42' W 007°36'0 0.0
2017-Sep-15 03:58N 33°42' W 007°36'0 0.0
2017-Sep-14 19:37N 33°42' W 007°36'0 0.1
2017-Sep-14 19:25N 33°42' W 007°36'0 0.0
2017-Sep-14 17:55N 33°42' W 007°36'0 0.0
2017-Sep-14 16:10N 33°42' W 007°36'0 0.2
2017-Sep-14 15:58N 33°42' W 007°36'0 0.0
2017-Sep-14 15:25N 33°42' W 007°36'0 0.0
2017-Sep-14 12:43N 33°42' W 007°36'0 0.1
2017-Sep-14 12:13N 33°42' W 007°36'0 0.0
2017-Sep-13 13:15N 33°42' W 007°36'0 0.1
2017-Sep-13 12:58N 33°42' W 007°36'  
2017-Sep-11 07:34N 34°59' W 006°50'114.2
2017-Sep-11 07:29N 34°60' W 006°49'1914.3
2017-Sep-11 06:11N 35°17' W 006°40'214.3
2017-Sep-11 06:01N 35°19' W 006°38'6011.5
2017-Sep-11 00:46N 35°57' W 005°41'413.4
2017-Sep-11 00:30N 35°57' W 005°36'611.9
2017-Sep-11 00:00N 35°59' W 005°29'510.4
2017-Sep-10 23:30N 36°01' W 005°24'510.6
2017-Sep-10 23:00N 36°07' W 005°23'1 1.2
2017-Sep-10 22:28N 36°07' W 005°22'0 0.0
2017-Sep-10 21:58N 36°07' W 005°22'0 0.1
2017-Sep-10 21:28N 36°07' W 005°22'0 0.0
2017-Sep-10 20:58N 36°07' W 005°22'0 0.0
2017-Sep-10 20:28N 36°07' W 005°22'0 0.0
2017-Sep-10 19:58N 36°07' W 005°22'0 0.1
2017-Sep-10 19:28N 36°07' W 005°22'0 0.0
2017-Sep-10 18:58N 36°07' W 005°22'0 0.1
2017-Sep-10 18:28N 36°07' W 005°22'0 0.0
2017-Sep-10 17:58N 36°07' W 005°22'0 0.0
2017-Sep-10 17:28N 36°07' W 005°22'0 0.0
2017-Sep-10 16:58N 36°07' W 005°22'0 0.2
2017-Sep-10 16:28N 36°07' W 005°22'0 0.6
2017-Sep-10 16:00N 36°07' W 005°22'2 4.2
2017-Sep-10 15:30N 36°05' W 005°21'2 4.0
2017-Sep-10 15:01N 36°04' W 005°19'2 2.3
2017-Sep-10 14:01N 36°04' W 005°16'2 3.8
2017-Sep-10 13:30N 36°04' W 005°14'22111.2
2017-Sep-09 17:44N 37°19' W 000°55'312.4
2017-Sep-09 17:30N 37°21' W 000°52'612.8
2017-Sep-09 17:01N 37°25' W 000°46'712.9
2017-Sep-09 16:30N 37°29' W 000°40'712.9
2017-Sep-09 15:59N 37°34' W 000°34'612.9
2017-Sep-09 15:30N 37°39' W 000°29'713.0
2017-Sep-09 15:00N 37°44' W 000°25'713.0
2017-Sep-09 14:29N 37°50' W 000°20'613.3
2017-Sep-09 14:00N 37°55' W 000°16'713.3
2017-Sep-09 13:30N 38°01' W 000°11'713.3
2017-Sep-09 12:59N 38°06' W 000°06'613.1
2017-Sep-09 12:30N 38°12' W 000°02'1113.2
2017-Sep-09 11:41N 38°21' E 000°06'313.4
2017-Sep-09 11:29N 38°23' E 000°07'613.3
2017-Sep-09 11:01N 38°28' E 000°12'713.1
2017-Sep-09 10:30N 38°34' E 000°16'612.7
2017-Sep-09 10:01N 38°39' E 000°20'612.6
2017-Sep-09 09:31N 38°45' E 000°25'612.7
2017-Sep-09 09:00N 38°51' E 000°27'612.8
2017-Sep-09 08:30N 38°57' E 000°30'713.1
2017-Sep-09 08:00N 39°03' E 000°32'713.1
2017-Sep-09 07:30N 39°10' E 000°35'713.1
2017-Sep-09 07:00N 39°16' E 000°37'713.2
2017-Sep-09 06:30N 39°22' E 000°40'1713.7
2017-Sep-09 05:14N 39°39' E 000°47'413.5
2017-Sep-09 04:55N 39°43' E 000°48'613.6
2017-Sep-09 04:30N 39°48' E 000°51'713.4
2017-Sep-09 04:00N 39°55' E 000°53'713.2
2017-Sep-09 03:30N 40°01' E 000°55'713.3
2017-Sep-09 03:00N 40°07' E 000°57'713.4
2017-Sep-09 02:30N 40°14' E 000°59'713.5
2017-Sep-09 02:00N 40°20' E 001°01'713.7
2017-Sep-09 01:30N 40°27' E 001°04'713.7
2017-Sep-09 01:00N 40°34' E 001°06'813.8
2017-Sep-09 00:27N 40°41' E 001°08'614.0
2017-Sep-08 23:59N 40°48' E 001°09'913.9
2017-Sep-08 23:19N 40°57' E 001°12'514.0
2017-Sep-08 22:57N 41°02' E 001°13'2 3.8
2017-Sep-08 22:29N 41°03' E 001°13'0 0.3
2017-Sep-08 21:59N 41°03' E 001°13'1 1.3
2017-Sep-08 21:24N 41°03' E 001°13'1 2.9
2017-Sep-08 21:00N 41°02' E 001°12'1 2.8
2017-Sep-08 20:28N 41°03' E 001°12'3 0.6
2017-Sep-08 16:02N 41°06' E 001°14'0 0.0
2017-Sep-08 15:50N 41°06' E 001°14'0 0.0
2017-Sep-08 00:14N 41°06' E 001°14'0 0.0
2017-Sep-07 22:44N 41°06' E 001°14'0 0.0
2017-Sep-07 22:14N 41°06' E 001°14'0 0.0
2017-Sep-07 19:20N 41°06' E 001°14'0 0.0
2017-Sep-07 16:50N 41°06' E 001°14'0 0.0
2017-Sep-07 15:50N 41°06' E 001°14'0 0.0
2017-Sep-07 03:14N 41°06' E 001°14'0 0.0
2017-Sep-07 02:56N 41°06' E 001°14'0 0.0
2017-Sep-07 01:56N 41°06' E 001°14'0 0.0
2017-Sep-05 21:20N 41°06' E 001°14'0 0.0
2017-Sep-05 20:32N 41°06' E 001°14'0 0.0
2017-Sep-05 18:56N 41°06' E 001°14'0 0.0
2017-Sep-05 18:26N 41°06' E 001°14'0 0.0
2017-Sep-05 17:14N 41°06' E 001°14'0 0.0
2017-Sep-05 16:56N 41°06' E 001°14'0 0.0
2017-Sep-05 16:20N 41°06' E 001°14'0 0.0
2017-Sep-05 15:56N 41°06' E 001°14'0 0.0
2017-Sep-05 15:26N 41°06' E 001°14'0 0.0
2017-Sep-05 14:41N 41°06' E 001°14'0 0.0
2017-Sep-05 14:26N 41°06' E 001°14'  
Track history (hours):
 
Tides and Currents Weather Stations Pressure Air Temp Water Temp Dewpoint Dewpoint Depression Visibility Wind Speed Wind Dir Waves Ship Positions

Giorgos Dracopoulos

Last reported at 2017-Sep-15 06:58 UTC. Time now 2017-Sep-21 16:18 UTC.
Position N 33°42' W 007°36'.

Length 199 m; draft 6.9 m.

Type: Cargo ship. MMSI: 229523000.

Date/timePositionNaut miles runAvg speedWind from/ knotsBaromVisibWave heightAir tempDewpointWater temp
2017-Sep-15 06:58N 33°42' W 007°36'0 0.0
2017-Sep-15 04:55N 33°42' W 007°36'0 0.0
2017-Sep-15 03:58N 33°42' W 007°36'0 0.0
2017-Sep-14 19:37N 33°42' W 007°36'0 0.1
2017-Sep-14 19:25N 33°42' W 007°36'0 0.0
2017-Sep-14 17:55N 33°42' W 007°36'0 0.0
2017-Sep-14 16:10N 33°42' W 007°36'0 0.2
2017-Sep-14 15:58N 33°42' W 007°36'0 0.0
2017-Sep-14 15:25N 33°42' W 007°36'0 0.0
2017-Sep-14 12:43N 33°42' W 007°36'0 0.1
2017-Sep-14 12:13N 33°42' W 007°36'0 0.0
2017-Sep-13 13:15N 33°42' W 007°36'0 0.1
2017-Sep-13 12:58N 33°42' W 007°36'  
2017-Sep-11 07:34N 34°59' W 006°50'114.2
2017-Sep-11 07:29N 34°60' W 006°49'1914.3
2017-Sep-11 06:11N 35°17' W 006°40'214.3
2017-Sep-11 06:01N 35°19' W 006°38'6011.5
2017-Sep-11 00:46N 35°57' W 005°41'413.4
2017-Sep-11 00:30N 35°57' W 005°36'611.9
2017-Sep-11 00:00N 35°59' W 005°29'510.4
2017-Sep-10 23:30N 36°01' W 005°24'510.6
2017-Sep-10 23:00N 36°07' W 005°23'1 1.2
2017-Sep-10 22:28N 36°07' W 005°22'0 0.0
2017-Sep-10 21:58N 36°07' W 005°22'0 0.1
2017-Sep-10 21:28N 36°07' W 005°22'0 0.0
2017-Sep-10 20:58N 36°07' W 005°22'0 0.0
2017-Sep-10 20:28N 36°07' W 005°22'0 0.0
2017-Sep-10 19:58N 36°07' W 005°22'0 0.1
2017-Sep-10 19:28N 36°07' W 005°22'0 0.0
2017-Sep-10 18:58N 36°07' W 005°22'0 0.1
2017-Sep-10 18:28N 36°07' W 005°22'0 0.0
2017-Sep-10 17:58N 36°07' W 005°22'0 0.0
2017-Sep-10 17:28N 36°07' W 005°22'0 0.0
2017-Sep-10 16:58N 36°07' W 005°22'0 0.2
2017-Sep-10 16:28N 36°07' W 005°22'0 0.6
2017-Sep-10 16:00N 36°07' W 005°22'2 4.2
2017-Sep-10 15:30N 36°05' W 005°21'2 4.0
2017-Sep-10 15:01N 36°04' W 005°19'2 2.3
2017-Sep-10 14:01N 36°04' W 005°16'2 3.8
2017-Sep-10 13:30N 36°04' W 005°14'22111.2
2017-Sep-09 17:44N 37°19' W 000°55'312.4
2017-Sep-09 17:30N 37°21' W 000°52'612.8
2017-Sep-09 17:01N 37°25' W 000°46'712.9
2017-Sep-09 16:30N 37°29' W 000°40'712.9
2017-Sep-09 15:59N 37°34' W 000°34'612.9
2017-Sep-09 15:30N 37°39' W 000°29'713.0
2017-Sep-09 15:00N 37°44' W 000°25'713.0
2017-Sep-09 14:29N 37°50' W 000°20'613.3
2017-Sep-09 14:00N 37°55' W 000°16'713.3
2017-Sep-09 13:30N 38°01' W 000°11'713.3
2017-Sep-09 12:59N 38°06' W 000°06'613.1
2017-Sep-09 12:30N 38°12' W 000°02'1113.2
2017-Sep-09 11:41N 38°21' E 000°06'313.4
2017-Sep-09 11:29N 38°23' E 000°07'613.3
2017-Sep-09 11:01N 38°28' E 000°12'713.1
2017-Sep-09 10:30N 38°34' E 000°16'612.7
2017-Sep-09 10:01N 38°39' E 000°20'612.6
2017-Sep-09 09:31N 38°45' E 000°25'612.7
2017-Sep-09 09:00N 38°51' E 000°27'612.8
2017-Sep-09 08:30N 38°57' E 000°30'713.1
2017-Sep-09 08:00N 39°03' E 000°32'713.1
2017-Sep-09 07:30N 39°10' E 000°35'713.1
2017-Sep-09 07:00N 39°16' E 000°37'713.2
2017-Sep-09 06:30N 39°22' E 000°40'1713.7
2017-Sep-09 05:14N 39°39' E 000°47'413.5
2017-Sep-09 04:55N 39°43' E 000°48'613.6
2017-Sep-09 04:30N 39°48' E 000°51'713.4
2017-Sep-09 04:00N 39°55' E 000°53'713.2
2017-Sep-09 03:30N 40°01' E 000°55'713.3
2017-Sep-09 03:00N 40°07' E 000°57'713.4
2017-Sep-09 02:30N 40°14' E 000°59'713.5
2017-Sep-09 02:00N 40°20' E 001°01'713.7
2017-Sep-09 01:30N 40°27' E 001°04'713.7
2017-Sep-09 01:00N 40°34' E 001°06'813.8
2017-Sep-09 00:27N 40°41' E 001°08'614.0
2017-Sep-08 23:59N 40°48' E 001°09'913.9
2017-Sep-08 23:19N 40°57' E 001°12'514.0
2017-Sep-08 22:57N 41°02' E 001°13'2 3.8
2017-Sep-08 22:29N 41°03' E 001°13'0 0.3
2017-Sep-08 21:59N 41°03' E 001°13'1 1.3
2017-Sep-08 21:24N 41°03' E 001°13'1 2.9
2017-Sep-08 21:00N 41°02' E 001°12'1 2.8
2017-Sep-08 20:28N 41°03' E 001°12'3 0.6
2017-Sep-08 16:02N 41°06' E 001°14'0 0.0
2017-Sep-08 15:50N 41°06' E 001°14'0 0.0
2017-Sep-08 00:14N 41°06' E 001°14'0 0.0
2017-Sep-07 22:44N 41°06' E 001°14'0 0.0
2017-Sep-07 22:14N 41°06' E 001°14'0 0.0
2017-Sep-07 19:20N 41°06' E 001°14'0 0.0
2017-Sep-07 16:50N 41°06' E 001°14'0 0.0
2017-Sep-07 15:50N 41°06' E 001°14'0 0.0
2017-Sep-07 03:14N 41°06' E 001°14'0 0.0
2017-Sep-07 02:56N 41°06' E 001°14'0 0.0
2017-Sep-07 01:56N 41°06' E 001°14'0 0.0
2017-Sep-05 21:20N 41°06' E 001°14'0 0.0
2017-Sep-05 20:32N 41°06' E 001°14'0 0.0
2017-Sep-05 18:56N 41°06' E 001°14'0 0.0
2017-Sep-05 18:26N 41°06' E 001°14'0 0.0
2017-Sep-05 17:14N 41°06' E 001°14'0 0.0
2017-Sep-05 16:56N 41°06' E 001°14'0 0.0
2017-Sep-05 16:20N 41°06' E 001°14'0 0.0
2017-Sep-05 15:56N 41°06' E 001°14'0 0.0
2017-Sep-05 15:26N 41°06' E 001°14'0 0.0
2017-Sep-05 14:41N 41°06' E 001°14'0 0.0
2017-Sep-05 14:26N 41°06' E 001°14'  

Dump ship's entire track history